sensor_id;sensor_type;location;lat;lon;timestamp;pressure;altitude;pressure_sealevel;temperature;humidity
29163;BME280;20331;53.144;8.208;2023-03-03T00:06:28;102722.91;;;3.81;90.15
29163;BME280;20331;53.144;8.208;2023-03-03T00:16:50;102721.34;;;3.86;89.55
29163;BME280;20331;53.144;8.208;2023-03-03T00:27:30;102718.94;;;3.91;89.68
29163;BME280;20331;53.144;8.208;2023-03-03T00:37:56;102723.09;;;3.87;90.12
29163;BME280;20331;53.144;8.208;2023-03-03T00:58:57;102716.38;;;3.91;90.19
29163;BME280;20331;53.144;8.208;2023-03-03T01:09:18;102721.72;;;3.98;90.38
29163;BME280;20331;53.144;8.208;2023-03-03T01:19:40;102714.13;;;4.03;89.73
29163;BME280;20331;53.144;8.208;2023-03-03T01:30:02;102707.34;;;4.05;90.26
29163;BME280;20331;53.144;8.208;2023-03-03T01:40:25;102700.59;;;4.07;89.57
29163;BME280;20331;53.144;8.208;2023-03-03T02:01:21;102692.03;;;4.06;89.71
29163;BME280;20331;53.144;8.208;2023-03-03T02:11:43;102675.84;;;4.07;89.56
29163;BME280;20331;53.144;8.208;2023-03-03T02:22:04;102682.69;;;4.08;88.92
29163;BME280;20331;53.144;8.208;2023-03-03T02:32:26;102685.16;;;4.04;88.51
29163;BME280;20331;53.144;8.208;2023-03-03T02:42:47;102690.28;;;4.04;89.09
29163;BME280;20331;53.144;8.208;2023-03-03T02:53:12;102686.91;;;4.06;88.83
29163;BME280;20331;53.144;8.208;2023-03-03T03:03:33;102687.56;;;3.99;88.98
29163;BME280;20331;53.144;8.208;2023-03-03T03:13:55;102696.81;;;3.93;89.63
29163;BME280;20331;53.144;8.208;2023-03-03T03:24:16;102684.88;;;3.93;90.83
29163;BME280;20331;53.144;8.208;2023-03-03T03:34:38;102673.03;;;3.97;91.99
29163;BME280;20331;53.144;8.208;2023-03-03T03:44:59;102684.03;;;3.94;92.37
29163;BME280;20331;53.144;8.208;2023-03-03T03:55:21;102693.41;;;3.94;91.96
29163;BME280;20331;53.144;8.208;2023-03-03T04:05:42;102691.00;;;4.00;92.08
29163;BME280;20331;53.144;8.208;2023-03-03T04:16:04;102687.69;;;4.02;92.21
29163;BME280;20331;53.144;8.208;2023-03-03T04:26:26;102688.53;;;4.03;92.80
29163;BME280;20331;53.144;8.208;2023-03-03T04:36:47;102686.03;;;4.04;92.59
29163;BME280;20331;53.144;8.208;2023-03-03T04:47:08;102674.91;;;4.04;92.46
29163;BME280;20331;53.144;8.208;2023-03-03T04:57:30;102667.97;;;4.00;93.30
29163;BME280;20331;53.144;8.208;2023-03-03T05:07:52;102662.91;;;4.03;92.86
29163;BME280;20331;53.144;8.208;2023-03-03T05:18:13;102658.91;;;4.13;93.12
29163;BME280;20331;53.144;8.208;2023-03-03T05:28:34;102651.25;;;4.14;92.20
29163;BME280;20331;53.144;8.208;2023-03-03T05:38:56;102645.28;;;4.14;92.18
29163;BME280;20331;53.144;8.208;2023-03-03T05:49:17;102664.72;;;4.07;92.06
29163;BME280;20331;53.144;8.208;2023-03-03T05:59:39;102675.22;;;3.85;92.43
29163;BME280;20331;53.144;8.208;2023-03-03T06:10:00;102684.97;;;3.67;94.01
29163;BME280;20331;53.144;8.208;2023-03-03T06:20:21;102710.53;;;3.65;94.43
29163;BME280;20331;53.144;8.208;2023-03-03T06:30:43;102725.69;;;3.59;93.20
29163;BME280;20331;53.144;8.208;2023-03-03T06:41:04;102734.63;;;3.44;94.07
29163;BME280;20331;53.144;8.208;2023-03-03T07:01:51;102733.16;;;3.52;94.98
29163;BME280;20331;53.144;8.208;2023-03-03T07:12:17;102735.00;;;3.57;94.03
29163;BME280;20331;53.144;8.208;2023-03-03T07:22:39;102744.47;;;3.60;94.53
29163;BME280;20331;53.144;8.208;2023-03-03T07:33:00;102750.72;;;3.68;93.45
29163;BME280;20331;53.144;8.208;2023-03-03T07:43:28;102763.13;;;3.56;92.62
29163;BME280;20331;53.144;8.208;2023-03-03T07:53:50;102755.06;;;3.72;93.32
29163;BME280;20331;53.144;8.208;2023-03-03T08:04:14;102757.88;;;3.81;91.87
29163;BME280;20331;53.144;8.208;2023-03-03T08:14:37;102755.00;;;3.98;91.33
29163;BME280;20331;53.144;8.208;2023-03-03T08:24:58;102746.94;;;4.16;91.42
29163;BME280;20331;53.144;8.208;2023-03-03T08:35:20;102745.31;;;4.20;91.05
29163;BME280;20331;53.144;8.208;2023-03-03T08:45:42;102748.59;;;4.14;90.67
29163;BME280;20331;53.144;8.208;2023-03-03T08:56:04;102748.94;;;4.26;91.13
29163;BME280;20331;53.144;8.208;2023-03-03T09:06:27;102752.72;;;4.40;90.48
29163;BME280;20331;53.144;8.208;2023-03-03T09:16:52;102764.84;;;4.47;90.23
29163;BME280;20331;53.144;8.208;2023-03-03T09:27:27;102773.22;;;4.73;89.71
29163;BME280;20331;53.144;8.208;2023-03-03T09:37:49;102760.31;;;4.70;88.58
29163;BME280;20331;53.144;8.208;2023-03-03T09:48:14;102764.81;;;4.78;88.28
29163;BME280;20331;53.144;8.208;2023-03-03T10:30:37;102757.91;;;5.47;88.20
29163;BME280;20331;53.144;8.208;2023-03-03T10:41:38;102748.41;;;5.83;87.50
29163;BME280;20331;53.144;8.208;2023-03-03T10:52:05;102763.97;;;6.34;86.09
29163;BME280;20331;53.144;8.208;2023-03-03T11:02:35;102753.97;;;6.49;84.90
29163;BME280;20331;53.144;8.208;2023-03-03T11:13:19;102753.97;;;6.49;85.56
29163;BME280;20331;53.144;8.208;2023-03-03T11:23:45;102755.84;;;6.59;85.73
29163;BME280;20331;53.144;8.208;2023-03-03T11:34:31;102739.72;;;6.68;85.12
29163;BME280;20331;53.144;8.208;2023-03-03T11:45:02;102746.59;;;6.69;83.69
29163;BME280;20331;53.144;8.208;2023-03-03T11:55:30;102739.84;;;6.75;83.91
29163;BME280;20331;53.144;8.208;2023-03-03T12:17:29;102719.59;;;6.98;83.43
29163;BME280;20331;53.144;8.208;2023-03-03T12:27:34;102703.63;;;7.19;82.37
29163;BME280;20331;53.144;8.208;2023-03-03T13:09:23;102674.03;;;7.51;78.63
29163;BME280;20331;53.144;8.208;2023-03-03T13:19:51;102674.88;;;7.53;77.04
29163;BME280;20331;53.144;8.208;2023-03-03T13:30:25;102645.94;;;7.72;75.38
29163;BME280;20331;53.144;8.208;2023-03-03T13:40:49;102619.44;;;7.86;75.02
29163;BME280;20331;53.144;8.208;2023-03-03T14:22:51;102578.31;;;7.97;73.96
29163;BME280;20331;53.144;8.208;2023-03-03T14:43:35;102556.88;;;8.01;72.49
29163;BME280;20331;53.144;8.208;2023-03-03T14:53:57;102550.81;;;7.97;73.55
29163;BME280;20331;53.144;8.208;2023-03-03T15:04:22;102551.78;;;8.13;70.83
29163;BME280;20331;53.144;8.208;2023-03-03T15:14:45;102545.81;;;8.12;69.52
29163;BME280;20331;53.144;8.208;2023-03-03T15:25:12;102534.53;;;8.03;71.59
29163;BME280;20331;53.144;8.208;2023-03-03T15:35:38;102536.25;;;8.01;71.35
29163;BME280;20331;53.144;8.208;2023-03-03T15:46:08;102527.63;;;8.00;71.35
29163;BME280;20331;53.144;8.208;2023-03-03T16:17:30;102524.94;;;7.84;72.21
29163;BME280;20331;53.144;8.208;2023-03-03T16:38:22;102522.16;;;7.60;71.85
29163;BME280;20331;53.144;8.208;2023-03-03T16:49:07;102528.91;;;7.49;73.63
29163;BME280;20331;53.144;8.208;2023-03-03T17:09:54;102537.44;;;7.45;74.12
29163;BME280;20331;53.144;8.208;2023-03-03T17:30:59;102548.50;;;7.35;74.13
29163;BME280;20331;53.144;8.208;2023-03-03T17:42:08;102546.69;;;7.25;74.09
29163;BME280;20331;53.144;8.208;2023-03-03T17:52:29;102562.91;;;7.19;74.32
29163;BME280;20331;53.144;8.208;2023-03-03T18:13:22;102553.44;;;7.17;75.24
29163;BME280;20331;53.144;8.208;2023-03-03T18:23:50;102550.00;;;7.16;75.77
29163;BME280;20331;53.144;8.208;2023-03-03T18:44:38;102545.69;;;7.13;75.75
29163;BME280;20331;53.144;8.208;2023-03-03T19:06:04;102551.66;;;7.12;74.79
29163;BME280;20331;53.144;8.208;2023-03-03T19:16:10;102561.16;;;7.17;75.32
29163;BME280;20331;53.144;8.208;2023-03-03T19:26:54;102558.53;;;7.12;74.43
29163;BME280;20331;53.144;8.208;2023-03-03T19:47:50;102564.50;;;7.09;74.62
29163;BME280;20331;53.144;8.208;2023-03-03T19:58:28;102558.53;;;7.12;75.44
29163;BME280;20331;53.144;8.208;2023-03-03T20:08:55;102556.00;;;7.15;75.30
29163;BME280;20331;53.144;8.208;2023-03-03T20:50:46;102582.50;;;7.08;76.23
29163;BME280;20331;53.144;8.208;2023-03-03T21:01:15;102585.13;;;7.12;75.66
29163;BME280;20331;53.144;8.208;2023-03-03T21:21:59;102580.84;;;7.14;75.91
29163;BME280;20331;53.144;8.208;2023-03-03T21:42:59;102578.22;;;7.08;76.78
29163;BME280;20331;53.144;8.208;2023-03-03T21:53:21;102567.97;;;7.11;76.32
29163;BME280;20331;53.144;8.208;2023-03-03T22:03:43;102564.53;;;7.12;77.23
29163;BME280;20331;53.144;8.208;2023-03-03T22:14:05;102557.66;;;7.10;76.62
29163;BME280;20331;53.144;8.208;2023-03-03T22:24:27;102560.16;;;7.04;76.69
29163;BME280;20331;53.144;8.208;2023-03-03T22:34:48;102555.00;;;7.04;77.11
29163;BME280;20331;53.144;8.208;2023-03-03T22:45:09;102551.63;;;7.06;77.10
29163;BME280;20331;53.144;8.208;2023-03-03T22:55:31;102540.47;;;7.07;77.08
29163;BME280;20331;53.144;8.208;2023-03-03T23:05:58;102537.84;;;7.04;77.77
29163;BME280;20331;53.144;8.208;2023-03-03T23:16:20;102543.00;;;7.04;76.92
29163;BME280;20331;53.144;8.208;2023-03-03T23:26:41;102544.78;;;7.10;77.28
29163;BME280;20331;53.144;8.208;2023-03-03T23:37:03;102529.34;;;7.08;77.72
29163;BME280;20331;53.144;8.208;2023-03-03T23:47:24;102525.91;;;7.09;77.15
29163;BME280;20331;53.144;8.208;2023-03-03T23:57:46;102524.19;;;7.10;78.38
